Opasatika, Canada
Current Conditions -  °F | °C
As of 12:00 AM on Monday 20 Oct 2014 (Local Time) from CYYU Reporting Station
Broken Clouds Broken Clouds  
Wind Chill: 29°   Ceiling: 2600
Heat Index: 34°   Visibility: 15mi
Dew Point: 28°   Wind: 6mph
Humidity: 81%   Direction: 150°SSE
Pressure: 29.83"   Gusts: NA
Location:  49.53°N, 82.87°W
Report Text: CYYU 200400Z 15005KT 15SM BKN026 BKN110 01/M02 A2983 RMK SC5AS1 SLP113
Loading
Personal Weather Stations






























Interactive Weather Map New forecast layout! Learn more

10-Day Weather Forecast

Advertisements
Track Severe Weather on mobile